createdAt,value
2023-04-24T00:00:18.634Z,98777.44
2023-04-24T00:02:48.321Z,98767.44
2023-04-24T00:05:18.325Z,98761.53
2023-04-24T00:07:46.981Z,98762.44
2023-04-24T00:10:14.869Z,98754.09
2023-04-24T00:12:44.135Z,98754.91
2023-04-24T00:15:12.696Z,98749.81
2023-04-24T00:17:40.793Z,98755.81
2023-04-24T00:20:11.333Z,98749.00
2023-04-24T00:22:39.267Z,98739.69
2023-04-24T00:25:08.028Z,98735.38
2023-04-24T00:27:37.616Z,98735.25
2023-04-24T00:30:08.506Z,98730.16
2023-04-24T00:32:36.453Z,98730.09
2023-04-24T00:35:04.812Z,98725.03
2023-04-24T00:37:32.765Z,98709.88
2023-04-24T00:40:00.753Z,98710.66
2023-04-24T00:42:28.953Z,98712.28
2023-04-24T00:44:58.519Z,98703.00
2023-04-24T00:47:28.058Z,98694.44
2023-04-24T00:49:56.834Z,98691.88
2023-04-24T00:52:25.274Z,98686.00
2023-04-24T00:54:53.217Z,98679.22
2023-04-24T00:57:22.682Z,98685.91
2023-04-24T00:59:50.751Z,98679.16
2023-04-24T01:02:18.939Z,98676.72
2023-04-24T01:04:48.436Z,98684.28
2023-04-24T01:07:16.379Z,98684.31
2023-04-24T01:09:44.641Z,98684.38
2023-04-24T01:12:12.636Z,98691.09
2023-04-24T01:14:40.699Z,98681.00
2023-04-24T01:17:10.176Z,98681.81
2023-04-24T01:19:38.166Z,98677.69
2023-04-24T01:22:12.619Z,98686.25
2023-04-24T01:24:40.729Z,98674.59
2023-04-24T01:27:09.333Z,98670.34
2023-04-24T01:29:37.425Z,98671.22
2023-04-24T01:32:06.409Z,98657.78
2023-04-24T01:34:34.596Z,98666.09
2023-04-24T01:37:03.068Z,98659.38
2023-04-24T01:39:34.355Z,98650.97
2023-04-24T01:42:03.247Z,98646.91
2023-04-24T01:44:31.220Z,98639.44
2023-04-24T01:46:59.306Z,98637.72
2023-04-24T01:49:27.243Z,98644.50
2023-04-24T01:51:55.102Z,98641.09
2023-04-24T01:54:23.291Z,98631.09
2023-04-24T01:56:52.963Z,98638.69
2023-04-24T01:59:23.672Z,98615.13
2023-04-24T02:01:52.002Z,98603.34
2023-04-24T02:04:20.844Z,98609.28
2023-04-24T02:06:49.646Z,98622.78
2023-04-24T02:09:17.667Z,98623.69
2023-04-24T02:11:46.036Z,98634.72
2023-04-24T02:14:15.247Z,98633.88
2023-04-24T02:16:43.397Z,98631.56
2023-04-24T02:19:11.523Z,98625.69
2023-04-24T02:21:39.383Z,98624.88
2023-04-24T02:24:10.125Z,98628.22
2023-04-24T02:26:38.057Z,98631.00
2023-04-24T02:29:06.177Z,98632.66
2023-04-24T02:31:35.827Z,98632.66
2023-04-24T02:34:03.806Z,98628.44
2023-04-24T02:36:32.613Z,98624.38
2023-04-24T02:39:00.574Z,98619.53
2023-04-24T02:41:32.569Z,98617.00
2023-04-24T02:44:00.969Z,98613.75
2023-04-24T02:46:28.903Z,98618.84
2023-04-24T02:48:58.362Z,98615.47
2023-04-24T02:51:26.229Z,98603.69
2023-04-24T02:53:54.110Z,98608.56
2023-04-24T02:56:22.150Z,98604.34
2023-04-24T02:58:50.096Z,98611.75
2023-04-24T03:01:18.881Z,98614.22
2023-04-24T03:03:47.010Z,98608.28
2023-04-24T03:06:16.547Z,98614.09
2023-04-24T03:08:44.405Z,98606.50
2023-04-24T03:11:12.859Z,98607.34
2023-04-24T03:13:40.784Z,98590.41
2023-04-24T03:16:08.682Z,98592.09
2023-04-24T03:18:36.591Z,98581.16
2023-04-24T03:21:06.117Z,98586.97
2023-04-24T03:23:35.603Z,98574.34
2023-04-24T03:26:03.848Z,98574.28
2023-04-24T03:28:32.805Z,98564.09
2023-04-24T03:31:06.005Z,98556.41
2023-04-24T03:33:37.258Z,98564.97
2023-04-24T03:36:06.414Z,98547.44
2023-04-24T03:38:42.425Z,98552.44
2023-04-24T03:41:29.693Z,98565.84
2023-04-24T03:44:05.276Z,98546.50
2023-04-24T03:46:33.295Z,98559.13
2023-04-24T03:49:03.324Z,98551.53
2023-04-24T03:51:36.725Z,98557.47
2023-04-24T03:54:19.527Z,98568.44
2023-04-24T03:56:48.106Z,98566.00
2023-04-24T03:59:16.306Z,98552.56
2023-04-24T04:01:48.596Z,98550.22
2023-04-24T04:04:18.501Z,98551.09
2023-04-24T04:06:47.783Z,98546.06
2023-04-24T04:09:16.035Z,98554.44
2023-04-24T04:11:45.353Z,98551.88
2023-04-24T04:14:13.983Z,98552.75
2023-04-24T04:16:46.087Z,98548.72
2023-04-24T04:19:14.606Z,98542.78
2023-04-24T04:21:43.127Z,98552.09
2023-04-24T04:24:23.442Z,98547.00
2023-04-24T04:26:57.501Z,98542.84
2023-04-24T04:29:41.336Z,98554.69
2023-04-24T04:32:12.013Z,98558.00
2023-04-24T04:34:40.725Z,98554.50
2023-04-24T04:37:12.133Z,98555.34
2023-04-24T04:40:07.146Z,98554.47
2023-04-24T04:42:41.904Z,98551.91
2023-04-24T04:45:12.486Z,98556.00
2023-04-24T04:47:56.088Z,98559.16
2023-04-24T04:50:24.297Z,98564.09
2023-04-24T04:53:01.016Z,98558.91
2023-04-24T04:55:33.993Z,98560.56
2023-04-24T04:58:14.514Z,98555.44
2023-04-24T05:00:42.833Z,98555.63
2023-04-24T05:03:23.658Z,98556.56
2023-04-24T05:05:59.569Z,98555.69
2023-04-24T05:08:28.157Z,98558.22
2023-04-24T05:10:57.177Z,98553.13
2023-04-24T05:13:39.210Z,98560.75
2023-04-24T05:16:13.874Z,98558.22
2023-04-24T05:18:42.448Z,98555.56
2023-04-24T05:21:13.264Z,98558.94
2023-04-24T05:23:43.864Z,98555.63
2023-04-24T05:26:13.202Z,98558.16
2023-04-24T05:28:44.140Z,98546.53
2023-04-24T05:31:14.626Z,98542.41
2023-04-24T05:33:42.815Z,98553.38
2023-04-24T05:36:11.207Z,98554.22
2023-04-24T05:38:39.086Z,98561.81
2023-04-24T05:41:07.241Z,98557.75
2023-04-24T05:43:35.151Z,98552.78
2023-04-24T05:46:04.495Z,98562.00
2023-04-24T05:48:32.688Z,98548.50
2023-04-24T05:51:03.240Z,98553.31
2023-04-24T05:53:31.454Z,98560.88
2023-04-24T05:55:59.720Z,98550.75
2023-04-24T05:58:28.086Z,98555.84
2023-04-24T06:00:56.390Z,98550.69
2023-04-24T06:03:25.937Z,98548.78
2023-04-24T06:05:53.956Z,98549.38
2023-04-24T06:08:23.577Z,98545.94
2023-04-24T06:10:51.725Z,98539.84
2023-04-24T06:13:21.674Z,98542.09
2023-04-24T06:16:12.607Z,98532.59
2023-04-24T06:18:44.586Z,98536.69
2023-04-24T06:21:12.685Z,98536.38
2023-04-24T06:23:40.729Z,98530.13
2023-04-24T06:26:08.612Z,98533.19
2023-04-24T06:28:36.493Z,98528.13
2023-04-24T06:31:06.260Z,98531.28
2023-04-24T06:33:34.216Z,98536.31
2023-04-24T06:36:05.031Z,98539.63
2023-04-24T06:38:32.933Z,98543.91
2023-04-24T06:41:00.872Z,98532.84
2023-04-24T06:43:28.732Z,98531.09
2023-04-24T06:45:58.262Z,98531.91
2023-04-24T06:48:26.780Z,98528.69
2023-04-24T06:50:54.763Z,98530.56
2023-04-24T06:53:24.062Z,98536.50
2023-04-24T06:55:51.930Z,98533.25
2023-04-24T06:58:19.942Z,98531.50
2023-04-24T07:00:47.911Z,98520.31
2023-04-24T07:03:16.018Z,98535.50
2023-04-24T07:05:44.113Z,98530.66
2023-04-24T07:08:12.766Z,98533.97
2023-04-24T07:10:42.071Z,98532.31
2023-04-24T07:13:10.276Z,98531.50
2023-04-24T07:15:38.303Z,98528.09
2023-04-24T07:18:06.412Z,98531.31
2023-04-24T07:20:35.405Z,98533.81
2023-04-24T07:23:03.929Z,98533.94
2023-04-24T07:25:32.338Z,98540.78
2023-04-24T07:28:01.927Z,98534.84
2023-04-24T07:30:30.346Z,98540.97
2023-04-24T07:32:58.367Z,98536.06
2023-04-24T07:35:26.990Z,98529.41
2023-04-24T07:37:55.142Z,98536.09
2023-04-24T07:40:23.699Z,98538.66
2023-04-24T07:42:51.780Z,98543.13
2023-04-24T07:45:21.477Z,98546.69
2023-04-24T07:47:49.463Z,98540.03
2023-04-24T07:50:17.562Z,98545.91
2023-04-24T07:52:45.459Z,98539.91
2023-04-24T07:55:13.420Z,98542.38
2023-04-24T07:57:41.343Z,98547.47
2023-04-24T08:00:10.284Z,98540.56
2023-04-24T08:02:42.497Z,98549.78
2023-04-24T08:05:11.258Z,98550.44
2023-04-24T08:07:40.490Z,98551.09
2023-04-24T08:10:09.684Z,98546.56
2023-04-24T08:12:37.886Z,98552.31
2023-04-24T08:15:06.758Z,98549.78
2023-04-24T08:17:34.735Z,98541.16
2023-04-24T08:20:04.884Z,98549.66
2023-04-24T08:22:33.296Z,98540.31
2023-04-24T08:25:02.578Z,98543.44
2023-04-24T08:27:30.506Z,98545.63
2023-04-24T08:29:59.513Z,98545.16
2023-04-24T08:32:28.955Z,98549.00
2023-04-24T08:34:57.416Z,98544.44
2023-04-24T08:37:28.148Z,98555.19
2023-04-24T08:39:56.182Z,98552.72
2023-04-24T08:42:24.365Z,98561.06
2023-04-24T08:44:52.391Z,98562.00
2023-04-24T08:47:22.675Z,98562.84
2023-04-24T08:49:52.505Z,98557.44
2023-04-24T08:52:21.100Z,98555.34
2023-04-24T08:54:50.480Z,98547.53
2023-04-24T08:57:18.883Z,98555.75
2023-04-24T08:59:47.569Z,98554.81
2023-04-24T09:02:16.321Z,98555.53
2023-04-24T09:04:45.833Z,98554.63
2023-04-24T09:07:14.703Z,98546.72
2023-04-24T09:09:43.793Z,98551.50
2023-04-24T09:12:13.853Z,98544.28
2023-04-24T09:14:45.994Z,98545.09
2023-04-24T09:17:14.390Z,98547.00
2023-04-24T09:19:42.877Z,98548.78
2023-04-24T09:22:12.182Z,98551.50
2023-04-24T09:24:40.779Z,98552.16
2023-04-24T09:27:11.249Z,98547.78
2023-04-24T09:29:40.826Z,98547.91
2023-04-24T09:32:30.955Z,98552.38
2023-04-24T09:35:13.538Z,98551.16
2023-04-24T09:37:43.400Z,98551.53
2023-04-24T09:40:17.486Z,98547.84
2023-04-24T09:42:47.203Z,98540.63
2023-04-24T09:45:16.544Z,98545.66
2023-04-24T09:47:45.062Z,98547.81
2023-04-24T09:50:15.385Z,98545.28
2023-04-24T09:52:45.151Z,98544.63
2023-04-24T09:55:14.533Z,98543.81
2023-04-24T09:57:55.713Z,98542.50
2023-04-24T10:00:29.592Z,98541.81
2023-04-24T10:02:59.273Z,98550.09
2023-04-24T10:05:29.956Z,98549.88
2023-04-24T10:08:04.279Z,98546.22
2023-04-24T10:10:32.664Z,98554.28
2023-04-24T10:13:01.624Z,98552.88
2023-04-24T10:15:31.252Z,98548.25
2023-04-24T10:18:01.003Z,98543.81
2023-04-24T10:20:32.054Z,98545.03
2023-04-24T10:23:01.005Z,98544.47
2023-04-24T10:25:30.266Z,98532.25
2023-04-24T10:28:00.631Z,98534.09
2023-04-24T10:30:31.642Z,98532.81
2023-04-24T10:33:01.688Z,98547.44
2023-04-24T10:35:33.232Z,98539.25
2023-04-24T10:38:05.184Z,98545.22
2023-04-24T10:40:35.078Z,98539.56
2023-04-24T10:43:07.152Z,98544.78
2023-04-24T10:45:36.694Z,98544.91
2023-04-24T10:48:07.386Z,98542.41
2023-04-24T10:50:46.057Z,98543.31
2023-04-24T10:53:19.235Z,98544.19
2023-04-24T10:55:49.888Z,98543.38
2023-04-24T10:58:18.847Z,98541.75
2023-04-24T11:00:59.143Z,98536.69
2023-04-24T11:03:29.274Z,98536.78
2023-04-24T11:05:58.955Z,98529.22
2023-04-24T11:08:29.426Z,98536.03
2023-04-24T11:11:00.214Z,98535.19
2023-04-24T11:13:50.444Z,98531.81
2023-04-24T11:16:30.124Z,98531.72
2023-04-24T11:19:03.892Z,98529.22
2023-04-24T11:21:42.793Z,98530.97
2023-04-24T11:24:31.869Z,98529.22
2023-04-24T11:27:02.566Z,98528.31
2023-04-24T11:30:02.113Z,98525.09
2023-04-24T11:32:33.044Z,98538.47
2023-04-24T11:35:03.225Z,98525.91
2023-04-24T11:37:36.486Z,98535.13
2023-04-24T11:40:07.108Z,98531.03
2023-04-24T11:42:39.042Z,98539.34
2023-04-24T11:45:11.538Z,98535.19
2023-04-24T11:47:41.891Z,98532.00
2023-04-24T11:50:12.082Z,98525.41
2023-04-24T11:52:41.463Z,98530.44
2023-04-24T11:55:11.081Z,98534.56
2023-04-24T11:57:39.010Z,98532.81
2023-04-24T12:00:09.263Z,98536.09
2023-04-24T12:02:41.845Z,98526.81
2023-04-24T12:05:12.985Z,98531.13
2023-04-24T12:07:44.121Z,98528.59
2023-04-24T12:10:12.365Z,98530.25
2023-04-24T12:12:40.343Z,98522.00
2023-04-24T12:15:10.516Z,98531.41
2023-04-24T12:17:42.792Z,98528.88
2023-04-24T12:20:14.599Z,98523.91
2023-04-24T12:22:47.462Z,98531.41
2023-04-24T12:25:16.759Z,98528.78
2023-04-24T12:27:45.991Z,98521.25
2023-04-24T12:30:16.136Z,98517.94
2023-04-24T12:32:45.383Z,98518.75
2023-04-24T12:35:14.879Z,98513.69
2023-04-24T12:37:47.220Z,98516.28
2023-04-24T12:40:16.415Z,98515.63
2023-04-24T12:42:45.384Z,98509.88
2023-04-24T12:45:14.034Z,98518.38
2023-04-24T12:47:43.064Z,98516.72
2023-04-24T12:50:13.251Z,98509.91
2023-04-24T12:52:43.257Z,98508.19
2023-04-24T12:55:13.035Z,98508.13
2023-04-24T12:57:46.428Z,98505.78
2023-04-24T13:00:15.754Z,98503.25
2023-04-24T13:02:45.233Z,98509.03
2023-04-24T13:05:14.762Z,98507.28
2023-04-24T13:07:44.091Z,98508.94
2023-04-24T13:10:12.388Z,98503.13
2023-04-24T13:12:41.225Z,98508.19
2023-04-24T13:15:09.817Z,98499.84
2023-04-24T13:17:37.721Z,98502.44
2023-04-24T13:20:06.872Z,98495.72
2023-04-24T13:22:35.169Z,98499.03
2023-04-24T13:25:06.883Z,98499.09
2023-04-24T13:27:35.054Z,98489.88
2023-04-24T13:30:03.037Z,98489.19
2023-04-24T13:32:31.614Z,98490.94
2023-04-24T13:34:59.597Z,98491.09
2023-04-24T13:37:27.527Z,98490.28
2023-04-24T13:39:55.584Z,98493.00
2023-04-24T13:42:24.855Z,98495.03
2023-04-24T13:44:53.041Z,98495.44
2023-04-24T13:47:20.901Z,98495.75
2023-04-24T13:49:48.761Z,98497.53
2023-04-24T13:52:16.775Z,98498.63
2023-04-24T13:54:44.630Z,98497.06
2023-04-24T13:57:12.829Z,98501.47
2023-04-24T13:59:42.088Z,98508.41
2023-04-24T14:02:10.168Z,98496.72
2023-04-24T14:04:38.450Z,98506.91
2023-04-24T14:07:06.581Z,98507.75
2023-04-24T14:09:34.399Z,98510.50
2023-04-24T14:12:02.880Z,98504.88
2023-04-24T14:14:31.424Z,98511.63
2023-04-24T14:17:00.739Z,98512.66
2023-04-24T14:19:28.674Z,98512.72
2023-04-24T14:21:57.740Z,98515.16
2023-04-24T14:24:25.641Z,98505.03
2023-04-24T14:26:53.793Z,98510.16
2023-04-24T14:29:21.859Z,98506.16
2023-04-24T14:31:49.906Z,98509.53
2023-04-24T14:34:19.259Z,98506.94
2023-04-24T14:36:47.241Z,98511.06
2023-04-24T14:39:15.124Z,98512.69
2023-04-24T14:41:43.041Z,98508.50
2023-04-24T14:44:11.548Z,98508.50
2023-04-24T14:46:39.623Z,98520.25
2023-04-24T14:49:10.563Z,98486.03
2023-04-24T14:51:40.076Z,98520.19
2023-04-24T14:54:08.008Z,98519.38
2023-04-24T14:56:35.950Z,98524.31
2023-04-24T14:59:05.023Z,98521.63
2023-04-24T15:01:32.850Z,98524.00
2023-04-24T15:04:00.860Z,98513.19
2023-04-24T15:06:28.986Z,98520.75
2023-04-24T15:08:58.278Z,98519.91
2023-04-24T15:11:26.188Z,98527.41
2023-04-24T15:13:54.124Z,98523.88
2023-04-24T15:16:22.249Z,98530.56
2023-04-24T15:18:50.177Z,98517.91
2023-04-24T15:21:18.105Z,98513.75
2023-04-24T15:23:46.182Z,98522.22
2023-04-24T15:26:15.650Z,98515.56
2023-04-24T15:28:43.861Z,98518.25
2023-04-24T15:31:11.825Z,98519.09
2023-04-24T15:33:39.741Z,98519.97
2023-04-24T15:36:08.001Z,98522.47
2023-04-24T15:38:35.968Z,98520.75
2023-04-24T15:41:03.861Z,98524.06
2023-04-24T15:43:35.154Z,98521.59
2023-04-24T15:46:03.551Z,98526.63
2023-04-24T15:48:31.655Z,98522.44
2023-04-24T15:50:59.760Z,98524.13
2023-04-24T15:53:28.363Z,98523.25
2023-04-24T15:55:57.039Z,98520.63
2023-04-24T15:58:25.017Z,98520.53
2023-04-24T16:00:54.788Z,98531.47
2023-04-24T16:03:23.259Z,98525.63
2023-04-24T16:05:51.605Z,98532.38
2023-04-24T16:08:19.479Z,98532.41
2023-04-24T16:10:47.344Z,98537.53
2023-04-24T16:13:15.698Z,98535.97
2023-04-24T16:15:43.725Z,98536.88
2023-04-24T16:18:13.095Z,98538.53
2023-04-24T16:20:41.279Z,98528.47
2023-04-24T16:23:09.179Z,98526.91
2023-04-24T16:25:37.175Z,98529.47
2023-04-24T16:28:05.220Z,98525.34
2023-04-24T16:30:33.314Z,98531.31
2023-04-24T16:33:05.530Z,98523.81
2023-04-24T16:35:34.952Z,98533.03
2023-04-24T16:38:03.334Z,98531.31
2023-04-24T16:40:31.465Z,98530.56
2023-04-24T16:42:59.364Z,98525.53
2023-04-24T16:45:27.439Z,98524.66
2023-04-24T16:47:55.471Z,98529.69
2023-04-24T16:50:23.393Z,98535.59
2023-04-24T16:52:52.613Z,98522.19
2023-04-24T16:55:20.508Z,98528.03
2023-04-24T16:57:48.464Z,98523.09
2023-04-24T17:00:17.317Z,98529.81
2023-04-24T17:02:48.513Z,98527.31
2023-04-24T17:05:16.643Z,98525.66
2023-04-24T17:07:44.510Z,98530.75
2023-04-24T17:10:13.740Z,98519.03
2023-04-24T17:12:41.582Z,98532.44
2023-04-24T17:15:10.048Z,98534.13
2023-04-24T17:17:37.985Z,98526.56
2023-04-24T17:20:18.629Z,98538.31
2023-04-24T17:22:50.511Z,98522.47
2023-04-24T17:25:20.087Z,98537.47
2023-04-24T17:27:48.180Z,98538.34
2023-04-24T17:30:17.575Z,98545.06
2023-04-24T17:32:45.683Z,98538.34
2023-04-24T17:35:13.719Z,98546.72
2023-04-24T17:37:41.677Z,98539.16
2023-04-24T17:40:10.625Z,98543.34
2023-04-24T17:42:41.503Z,98545.88
2023-04-24T17:45:10.904Z,98545.88
2023-04-24T17:47:38.876Z,98550.09
2023-04-24T17:50:07.796Z,98555.94
2023-04-24T17:52:36.518Z,98554.25
2023-04-24T17:55:04.837Z,98557.63
2023-04-24T17:57:32.765Z,98559.31
2023-04-24T18:00:02.050Z,98569.41
2023-04-24T18:02:34.203Z,98572.00
2023-04-24T18:05:02.255Z,98569.47
2023-04-24T18:07:30.460Z,98571.16
2023-04-24T18:09:58.711Z,98570.31
2023-04-24T18:12:27.297Z,98579.56
2023-04-24T18:15:06.719Z,98577.91
2023-04-24T18:17:45.070Z,98582.91
2023-04-24T18:20:14.429Z,98586.28
2023-04-24T18:22:43.180Z,98594.69
2023-04-24T18:25:11.794Z,98604.09
2023-04-24T18:27:40.571Z,98599.25
2023-04-24T18:30:14.193Z,98613.63
2023-04-24T18:32:44.264Z,98617.03
2023-04-24T18:35:12.287Z,98608.72
2023-04-24T18:37:40.664Z,98619.56
2023-04-24T18:40:10.071Z,98617.97
2023-04-24T18:42:38.078Z,98619.66
2023-04-24T18:45:07.277Z,98625.53
2023-04-24T18:47:35.890Z,98624.66
2023-04-24T18:50:05.556Z,98618.75
2023-04-24T18:52:33.674Z,98632.06
2023-04-24T18:55:03.512Z,98636.16
2023-04-24T18:57:31.461Z,98629.41
2023-04-24T18:59:59.579Z,98637.75
2023-04-24T19:02:27.946Z,98627.75
2023-04-24T19:04:56.072Z,98636.09
2023-04-24T19:07:25.305Z,98649.44
2023-04-24T19:09:53.301Z,98641.88
2023-04-24T19:12:22.733Z,98641.94
2023-04-24T19:14:51.772Z,98646.13
2023-04-24T19:17:23.564Z,98638.53
2023-04-24T19:19:52.206Z,98637.72
2023-04-24T19:22:20.674Z,98641.06
2023-04-24T19:24:49.930Z,98641.03
2023-04-24T19:27:17.815Z,98649.41
2023-04-24T19:29:46.041Z,98644.31
2023-04-24T19:32:14.011Z,98639.31
2023-04-24T19:34:41.893Z,98649.34
2023-04-24T19:37:09.961Z,98647.66
2023-04-24T19:39:37.869Z,98651.00
2023-04-24T19:42:07.787Z,98652.69
2023-04-24T19:44:36.031Z,98651.88
2023-04-24T19:47:04.233Z,98653.63
2023-04-24T19:49:32.297Z,98651.13
2023-04-24T19:52:00.233Z,98652.81
2023-04-24T19:54:28.808Z,98654.50
2023-04-24T19:56:57.003Z,98656.22
2023-04-24T19:59:26.481Z,98659.56
2023-04-24T20:01:55.041Z,98652.88
2023-04-24T20:04:24.074Z,98646.97
2023-04-24T20:06:52.060Z,98646.97
2023-04-24T20:09:19.908Z,98646.16
2023-04-24T20:11:51.017Z,98651.19
2023-04-24T20:14:18.990Z,98651.19
2023-04-24T20:16:48.199Z,98650.44
2023-04-24T20:19:16.106Z,98641.22
2023-04-24T20:21:44.180Z,98637.06
2023-04-24T20:24:12.223Z,98631.22
2023-04-24T20:26:40.564Z,98633.75
2023-04-24T20:29:08.802Z,98631.28
2023-04-24T20:31:36.855Z,98624.75
2023-04-24T20:34:06.624Z,98633.22
2023-04-24T20:36:34.712Z,98644.97
2023-04-24T20:39:04.904Z,98639.06
2023-04-24T20:41:33.369Z,98649.91
2023-04-24T20:44:01.747Z,98657.41
2023-04-24T20:46:29.828Z,98656.56
2023-04-24T20:48:57.809Z,98651.53
2023-04-24T20:51:28.240Z,98654.88
2023-04-24T20:53:56.146Z,98659.06
2023-04-24T20:56:24.740Z,98654.09
2023-04-24T20:58:55.342Z,98658.31
2023-04-24T21:01:24.860Z,98657.41
2023-04-24T21:03:53.365Z,98650.75
2023-04-24T21:06:21.839Z,98652.44
2023-04-24T21:08:51.205Z,98649.91
2023-04-24T21:11:19.064Z,98656.63
2023-04-24T21:13:47.057Z,98662.56
2023-04-24T21:16:15.338Z,98657.59
2023-04-24T21:18:43.273Z,98656.75
2023-04-24T21:21:11.347Z,98665.13
2023-04-24T21:23:39.236Z,98666.75
2023-04-24T21:26:08.686Z,98658.47
2023-04-24T21:28:37.418Z,98666.03
2023-04-24T21:31:05.342Z,98663.56
2023-04-24T21:33:33.319Z,98669.41
2023-04-24T21:36:01.246Z,98666.94
2023-04-24T21:38:29.175Z,98671.94
2023-04-24T21:40:57.266Z,98676.97
2023-04-24T21:43:37.176Z,98671.13
2023-04-24T21:46:11.773Z,98671.94
2023-04-24T21:48:39.687Z,98667.78
2023-04-24T21:51:07.561Z,98661.06
2023-04-24T21:53:35.471Z,98665.25
2023-04-24T21:56:03.459Z,98663.59
2023-04-24T21:58:32.907Z,98656.91
2023-04-24T22:01:00.885Z,98661.06
2023-04-24T22:03:29.753Z,98654.38
2023-04-24T22:05:57.814Z,98651.84
2023-04-24T22:08:30.159Z,98651.81
2023-04-24T22:10:58.112Z,98644.25
2023-04-24T22:13:25.971Z,98649.28
2023-04-24T22:15:56.233Z,98652.63
2023-04-24T22:18:33.404Z,98655.09
2023-04-24T22:21:05.359Z,98665.13
2023-04-24T22:23:33.437Z,98666.75
2023-04-24T22:26:01.328Z,98668.44
2023-04-24T22:28:29.175Z,98664.22
2023-04-24T22:30:58.541Z,98675.13
2023-04-24T22:33:26.566Z,98667.59
2023-04-24T22:35:54.654Z,98672.63
2023-04-24T22:38:22.550Z,98677.66
2023-04-24T22:40:50.829Z,98670.13
2023-04-24T22:43:18.794Z,98674.31
2023-04-24T22:45:46.630Z,98676.88
2023-04-24T22:48:16.371Z,98672.69
2023-04-24T22:50:44.204Z,98676.06
2023-04-24T22:53:12.110Z,98676.91
2023-04-24T22:55:40.118Z,98676.91
2023-04-24T22:58:08.298Z,98680.28
2023-04-24T23:00:36.311Z,98670.25
2023-04-24T23:03:04.602Z,98671.94
2023-04-24T23:05:33.955Z,98675.28
2023-04-24T23:08:01.820Z,98670.25
2023-04-24T23:10:29.901Z,98669.41
2023-04-24T23:12:57.779Z,98661.88
2023-04-24T23:15:25.784Z,98666.91
2023-04-24T23:17:53.825Z,98665.22
2023-04-24T23:20:23.103Z,98666.91
2023-04-24T23:22:52.454Z,98660.19
2023-04-24T23:25:20.406Z,98659.41
2023-04-24T23:27:48.229Z,98652.69
2023-04-24T23:30:16.116Z,98648.53
2023-04-24T23:32:44.790Z,98645.16
2023-04-24T23:35:12.701Z,98650.16
2023-04-24T23:37:40.598Z,98649.28
2023-04-24T23:40:11.044Z,98647.59
2023-04-24T23:42:39.058Z,98640.94
2023-04-24T23:45:10.584Z,98647.59
2023-04-24T23:47:38.546Z,98650.97
2023-04-24T23:50:07.328Z,98650.16
2023-04-24T23:52:36.401Z,98657.69
2023-04-24T23:55:04.934Z,98657.72
2023-04-24T23:57:34.167Z,98664.44
